sensor_id;sensor_type;location;lat;lon;timestamp;P1;durP1;ratioP1;P2;durP2;ratioP2
11054;SDS011;5580;50.106;8.702;2023-05-10T00:00:12;5.17;;;3.67;;
11054;SDS011;5580;50.106;8.702;2023-05-10T00:02:38;4.30;;;3.00;;
11054;SDS011;5580;50.106;8.702;2023-05-10T00:05:04;4.40;;;3.40;;
11054;SDS011;5580;50.106;8.702;2023-05-10T00:07:30;6.30;;;3.53;;
11054;SDS011;5580;50.106;8.702;2023-05-10T00:09:56;3.10;;;2.80;;
11054;SDS011;5580;50.106;8.702;2023-05-10T00:12:21;6.97;;;3.00;;
11054;SDS011;5580;50.106;8.702;2023-05-10T00:14:47;3.83;;;3.03;;
11054;SDS011;5580;50.106;8.702;2023-05-10T00:17:12;4.77;;;2.87;;
11054;SDS011;5580;50.106;8.702;2023-05-10T00:19:39;2.83;;;2.63;;
11054;SDS011;5580;50.106;8.702;2023-05-10T00:22:04;4.87;;;2.30;;
11054;SDS011;5580;50.106;8.702;2023-05-10T00:24:30;3.07;;;2.13;;
11054;SDS011;5580;50.106;8.702;2023-05-10T00:26:56;3.30;;;2.10;;
11054;SDS011;5580;50.106;8.702;2023-05-10T00:29:21;2.03;;;1.57;;
11054;SDS011;5580;50.106;8.702;2023-05-10T00:31:47;3.57;;;1.77;;
11054;SDS011;5580;50.106;8.702;2023-05-10T00:34:12;2.27;;;2.07;;
11054;SDS011;5580;50.106;8.702;2023-05-10T00:36:38;3.20;;;1.93;;
11054;SDS011;5580;50.106;8.702;2023-05-10T00:39:03;1.77;;;1.63;;
11054;SDS011;5580;50.106;8.702;2023-05-10T00:41:29;2.20;;;1.60;;
11054;SDS011;5580;50.106;8.702;2023-05-10T00:43:58;3.40;;;1.53;;
11054;SDS011;5580;50.106;8.702;2023-05-10T00:46:24;2.37;;;1.53;;
11054;SDS011;5580;50.106;8.702;2023-05-10T00:48:50;2.20;;;1.50;;
11054;SDS011;5580;50.106;8.702;2023-05-10T00:51:16;1.53;;;1.43;;
11054;SDS011;5580;50.106;8.702;2023-05-10T00:53:43;4.90;;;1.40;;
11054;SDS011;5580;50.106;8.702;2023-05-10T00:56:10;1.03;;;1.00;;
11054;SDS011;5580;50.106;8.702;2023-05-10T00:58:37;4.43;;;1.57;;
11054;SDS011;5580;50.106;8.702;2023-05-10T01:01:04;1.70;;;1.33;;
11054;SDS011;5580;50.106;8.702;2023-05-10T01:03:30;1.27;;;1.17;;
11054;SDS011;5580;50.106;8.702;2023-05-10T01:05:57;1.27;;;1.17;;
11054;SDS011;5580;50.106;8.702;2023-05-10T01:08:22;1.50;;;1.00;;
11054;SDS011;5580;50.106;8.702;2023-05-10T01:10:48;1.27;;;1.17;;
11054;SDS011;5580;50.106;8.702;2023-05-10T01:13:17;1.43;;;1.30;;
11054;SDS011;5580;50.106;8.702;2023-05-10T01:15:52;3.93;;;1.20;;
11054;SDS011;5580;50.106;8.702;2023-05-10T01:18:19;2.47;;;1.70;;
11054;SDS011;5580;50.106;8.702;2023-05-10T01:20:47;1.00;;;0.93;;
11054;SDS011;5580;50.106;8.702;2023-05-10T01:34:31;1.10;;;1.10;;
11054;SDS011;5580;50.106;8.702;2023-05-10T01:37:08;2.40;;;1.00;;
11054;SDS011;5580;50.106;8.702;2023-05-10T01:39:45;0.97;;;0.97;;
11054;SDS011;5580;50.106;8.702;2023-05-10T01:42:20;1.10;;;1.10;;
11054;SDS011;5580;50.106;8.702;2023-05-10T01:45:33;4.20;;;1.10;;
11054;SDS011;5580;50.106;8.702;2023-05-10T01:47:43;1.20;;;1.10;;
11054;SDS011;5580;50.106;8.702;2023-05-10T01:50:24;1.47;;;1.30;;
11054;SDS011;5580;50.106;8.702;2023-05-10T01:52:54;4.20;;;1.50;;
11054;SDS011;5580;50.106;8.702;2023-05-10T01:55:24;2.40;;;1.30;;
11054;SDS011;5580;50.106;8.702;2023-05-10T01:57:56;1.37;;;1.27;;
11054;SDS011;5580;50.106;8.702;2023-05-10T02:00:45;5.20;;;1.73;;
11054;SDS011;5580;50.106;8.702;2023-05-10T02:03:13;3.67;;;1.17;;
11054;SDS011;5580;50.106;8.702;2023-05-10T02:05:41;4.30;;;1.23;;
11054;SDS011;5580;50.106;8.702;2023-05-10T02:08:09;2.00;;;1.30;;
11054;SDS011;5580;50.106;8.702;2023-05-10T02:10:35;2.47;;;1.27;;
11054;SDS011;5580;50.106;8.702;2023-05-10T02:13:02;6.23;;;1.63;;
11054;SDS011;5580;50.106;8.702;2023-05-10T02:15:28;5.20;;;1.63;;
11054;SDS011;5580;50.106;8.702;2023-05-10T02:17:56;4.20;;;1.47;;
11054;SDS011;5580;50.106;8.702;2023-05-10T02:20:23;5.37;;;1.80;;
11054;SDS011;5580;50.106;8.702;2023-05-10T02:22:51;2.27;;;1.10;;
11054;SDS011;5580;50.106;8.702;2023-05-10T02:25:21;5.57;;;1.97;;
11054;SDS011;5580;50.106;8.702;2023-05-10T02:27:48;3.10;;;1.23;;
11054;SDS011;5580;50.106;8.702;2023-05-10T02:30:15;1.57;;;1.47;;
11054;SDS011;5580;50.106;8.702;2023-05-10T02:32:41;2.70;;;1.47;;
11054;SDS011;5580;50.106;8.702;2023-05-10T02:35:08;2.93;;;1.50;;
11054;SDS011;5580;50.106;8.702;2023-05-10T02:37:34;2.13;;;1.90;;
11054;SDS011;5580;50.106;8.702;2023-05-10T02:40:02;1.70;;;1.53;;
11054;SDS011;5580;50.106;8.702;2023-05-10T02:42:29;1.57;;;1.33;;
11054;SDS011;5580;50.106;8.702;2023-05-10T02:44:59;3.60;;;1.80;;
11054;SDS011;5580;50.106;8.702;2023-05-10T02:47:27;3.40;;;1.50;;
11054;SDS011;5580;50.106;8.702;2023-05-10T02:49:54;1.60;;;1.50;;
11054;SDS011;5580;50.106;8.702;2023-05-10T02:52:23;2.07;;;1.33;;
11054;SDS011;5580;50.106;8.702;2023-05-10T02:54:52;3.30;;;1.33;;
11054;SDS011;5580;50.106;8.702;2023-05-10T02:57:27;1.97;;;1.67;;
11054;SDS011;5580;50.106;8.702;2023-05-10T02:59:56;2.33;;;1.43;;
11054;SDS011;5580;50.106;8.702;2023-05-10T03:02:22;1.33;;;1.23;;
11054;SDS011;5580;50.106;8.702;2023-05-10T03:04:48;1.40;;;1.30;;
11054;SDS011;5580;50.106;8.702;2023-05-10T03:07:13;1.87;;;1.20;;
11054;SDS011;5580;50.106;8.702;2023-05-10T03:09:39;1.73;;;1.60;;
11054;SDS011;5580;50.106;8.702;2023-05-10T03:15:11;1.43;;;1.37;;
11054;SDS011;5580;50.106;8.702;2023-05-10T03:20:11;3.70;;;2.10;;
11054;SDS011;5580;50.106;8.702;2023-05-10T03:22:47;3.17;;;1.50;;
11054;SDS011;5580;50.106;8.702;2023-05-10T03:25:16;1.53;;;1.50;;
11054;SDS011;5580;50.106;8.702;2023-05-10T03:27:43;5.37;;;1.83;;
11054;SDS011;5580;50.106;8.702;2023-05-10T03:30:10;2.23;;;1.67;;
11054;SDS011;5580;50.106;8.702;2023-05-10T03:32:37;1.53;;;1.43;;
11054;SDS011;5580;50.106;8.702;2023-05-10T03:35:07;2.30;;;1.77;;
11054;SDS011;5580;50.106;8.702;2023-05-10T03:37:33;3.57;;;1.60;;
11054;SDS011;5580;50.106;8.702;2023-05-10T03:39:59;1.83;;;1.73;;
11054;SDS011;5580;50.106;8.702;2023-05-10T03:42:25;2.60;;;1.73;;
11054;SDS011;5580;50.106;8.702;2023-05-10T03:44:50;3.27;;;2.27;;
11054;SDS011;5580;50.106;8.702;2023-05-10T03:47:16;5.27;;;2.30;;
11054;SDS011;5580;50.106;8.702;2023-05-10T03:49:41;2.67;;;1.83;;
11054;SDS011;5580;50.106;8.702;2023-05-10T03:52:07;2.70;;;2.40;;
11054;SDS011;5580;50.106;8.702;2023-05-10T03:54:32;2.17;;;2.00;;
11054;SDS011;5580;50.106;8.702;2023-05-10T03:56:58;2.20;;;2.00;;
11054;SDS011;5580;50.106;8.702;2023-05-10T03:59:25;4.80;;;2.10;;
11054;SDS011;5580;50.106;8.702;2023-05-10T04:01:51;2.67;;;2.03;;
11054;SDS011;5580;50.106;8.702;2023-05-10T04:04:17;1.90;;;1.63;;
11054;SDS011;5580;50.106;8.702;2023-05-10T04:06:43;2.33;;;2.10;;
11054;SDS011;5580;50.106;8.702;2023-05-10T04:09:09;2.53;;;2.00;;
11054;SDS011;5580;50.106;8.702;2023-05-10T04:11:35;4.40;;;1.97;;
11054;SDS011;5580;50.106;8.702;2023-05-10T04:14:01;2.43;;;2.10;;
11054;SDS011;5580;50.106;8.702;2023-05-10T04:16:27;2.37;;;2.27;;
11054;SDS011;5580;50.106;8.702;2023-05-10T04:18:52;3.40;;;2.63;;
11054;SDS011;5580;50.106;8.702;2023-05-10T04:21:18;3.50;;;2.40;;
11054;SDS011;5580;50.106;8.702;2023-05-10T04:23:44;3.30;;;2.10;;
11054;SDS011;5580;50.106;8.702;2023-05-10T04:26:09;3.07;;;2.20;;
11054;SDS011;5580;50.106;8.702;2023-05-10T04:28:35;4.33;;;2.13;;
11054;SDS011;5580;50.106;8.702;2023-05-10T04:31:04;5.37;;;2.60;;
11054;SDS011;5580;50.106;8.702;2023-05-10T04:33:35;3.17;;;2.70;;
11054;SDS011;5580;50.106;8.702;2023-05-10T04:36:01;4.13;;;2.30;;
11054;SDS011;5580;50.106;8.702;2023-05-10T04:38:28;2.50;;;2.40;;
11054;SDS011;5580;50.106;8.702;2023-05-10T04:40:54;3.23;;;2.73;;
11054;SDS011;5580;50.106;8.702;2023-05-10T04:43:19;3.93;;;2.60;;
11054;SDS011;5580;50.106;8.702;2023-05-10T04:45:45;5.87;;;2.33;;
11054;SDS011;5580;50.106;8.702;2023-05-10T04:48:11;3.03;;;2.70;;
11054;SDS011;5580;50.106;8.702;2023-05-10T04:50:36;3.13;;;2.83;;
11054;SDS011;5580;50.106;8.702;2023-05-10T04:53:02;2.67;;;2.43;;
11054;SDS011;5580;50.106;8.702;2023-05-10T04:55:27;4.23;;;2.90;;
11054;SDS011;5580;50.106;8.702;2023-05-10T04:57:53;3.00;;;2.80;;
11054;SDS011;5580;50.106;8.702;2023-05-10T05:00:21;2.70;;;2.23;;
11054;SDS011;5580;50.106;8.702;2023-05-10T05:02:47;3.70;;;2.27;;
11054;SDS011;5580;50.106;8.702;2023-05-10T05:05:13;6.27;;;2.40;;
11054;SDS011;5580;50.106;8.702;2023-05-10T05:07:38;3.67;;;2.77;;
11054;SDS011;5580;50.106;8.702;2023-05-10T05:10:05;4.93;;;2.90;;
11054;SDS011;5580;50.106;8.702;2023-05-10T05:12:31;3.67;;;2.67;;
11054;SDS011;5580;50.106;8.702;2023-05-10T05:14:57;4.03;;;2.57;;
11054;SDS011;5580;50.106;8.702;2023-05-10T05:17:23;3.80;;;2.87;;
11054;SDS011;5580;50.106;8.702;2023-05-10T05:19:48;8.00;;;3.20;;
11054;SDS011;5580;50.106;8.702;2023-05-10T05:22:14;4.67;;;3.20;;
11054;SDS011;5580;50.106;8.702;2023-05-10T05:24:39;4.67;;;2.67;;
11054;SDS011;5580;50.106;8.702;2023-05-10T05:27:05;6.00;;;3.40;;
11054;SDS011;5580;50.106;8.702;2023-05-10T05:29:31;3.67;;;3.13;;
11054;SDS011;5580;50.106;8.702;2023-05-10T05:31:56;4.07;;;3.17;;
11054;SDS011;5580;50.106;8.702;2023-05-10T05:34:22;3.53;;;3.23;;
11054;SDS011;5580;50.106;8.702;2023-05-10T05:36:49;3.60;;;3.30;;
11054;SDS011;5580;50.106;8.702;2023-05-10T05:39:14;6.60;;;3.37;;
11054;SDS011;5580;50.106;8.702;2023-05-10T05:41:40;3.90;;;3.50;;
11054;SDS011;5580;50.106;8.702;2023-05-10T05:44:06;6.33;;;3.80;;
11054;SDS011;5580;50.106;8.702;2023-05-10T05:46:31;4.53;;;3.50;;
11054;SDS011;5580;50.106;8.702;2023-05-10T05:48:57;5.60;;;3.80;;
11054;SDS011;5580;50.106;8.702;2023-05-10T05:51:22;8.23;;;3.87;;
11054;SDS011;5580;50.106;8.702;2023-05-10T05:53:48;7.57;;;3.90;;
11054;SDS011;5580;50.106;8.702;2023-05-10T05:56:13;5.37;;;3.87;;
11054;SDS011;5580;50.106;8.702;2023-05-10T05:58:39;7.27;;;4.10;;
11054;SDS011;5580;50.106;8.702;2023-05-10T06:01:05;4.30;;;3.87;;
11054;SDS011;5580;50.106;8.702;2023-05-10T06:03:30;6.27;;;4.17;;
11054;SDS011;5580;50.106;8.702;2023-05-10T06:05:56;5.33;;;3.83;;
11054;SDS011;5580;50.106;8.702;2023-05-10T06:08:21;9.60;;;4.10;;
11054;SDS011;5580;50.106;8.702;2023-05-10T06:10:47;6.33;;;3.87;;
11054;SDS011;5580;50.106;8.702;2023-05-10T06:13:13;6.30;;;4.03;;
11054;SDS011;5580;50.106;8.702;2023-05-10T06:15:38;5.10;;;4.10;;
11054;SDS011;5580;50.106;8.702;2023-05-10T06:18:04;10.00;;;4.20;;
11054;SDS011;5580;50.106;8.702;2023-05-10T06:20:30;8.27;;;4.27;;
11054;SDS011;5580;50.106;8.702;2023-05-10T06:22:56;6.33;;;4.00;;
11054;SDS011;5580;50.106;8.702;2023-05-10T06:25:22;5.87;;;3.70;;
11054;SDS011;5580;50.106;8.702;2023-05-10T06:27:48;8.90;;;4.00;;
11054;SDS011;5580;50.106;8.702;2023-05-10T06:30:14;7.57;;;4.07;;
11054;SDS011;5580;50.106;8.702;2023-05-10T06:32:40;6.97;;;3.80;;
11054;SDS011;5580;50.106;8.702;2023-05-10T06:35:06;7.27;;;4.23;;
11054;SDS011;5580;50.106;8.702;2023-05-10T06:37:32;6.50;;;4.00;;
11054;SDS011;5580;50.106;8.702;2023-05-10T06:39:59;8.20;;;4.37;;
11054;SDS011;5580;50.106;8.702;2023-05-10T06:42:25;8.73;;;4.83;;
11054;SDS011;5580;50.106;8.702;2023-05-10T06:44:52;7.53;;;4.30;;
11054;SDS011;5580;50.106;8.702;2023-05-10T06:47:17;9.90;;;4.80;;
11054;SDS011;5580;50.106;8.702;2023-05-10T06:49:43;8.97;;;4.80;;
11054;SDS011;5580;50.106;8.702;2023-05-10T06:52:09;10.87;;;4.53;;
11054;SDS011;5580;50.106;8.702;2023-05-10T06:54:34;8.40;;;4.47;;
11054;SDS011;5580;50.106;8.702;2023-05-10T06:57:00;5.97;;;4.40;;
11054;SDS011;5580;50.106;8.702;2023-05-10T06:59:27;7.13;;;4.20;;
11054;SDS011;5580;50.106;8.702;2023-05-10T07:01:53;6.03;;;4.53;;
11054;SDS011;5580;50.106;8.702;2023-05-10T07:04:19;6.63;;;4.57;;
11054;SDS011;5580;50.106;8.702;2023-05-10T07:06:44;6.77;;;4.20;;
11054;SDS011;5580;50.106;8.702;2023-05-10T07:09:11;9.10;;;4.57;;
11054;SDS011;5580;50.106;8.702;2023-05-10T07:11:38;6.90;;;4.30;;
11054;SDS011;5580;50.106;8.702;2023-05-10T07:14:03;8.37;;;4.60;;
11054;SDS011;5580;50.106;8.702;2023-05-10T07:16:30;9.37;;;4.50;;
11054;SDS011;5580;50.106;8.702;2023-05-10T07:18:55;7.60;;;4.30;;
11054;SDS011;5580;50.106;8.702;2023-05-10T07:21:21;10.87;;;4.70;;
11054;SDS011;5580;50.106;8.702;2023-05-10T07:23:48;9.70;;;4.60;;
11054;SDS011;5580;50.106;8.702;2023-05-10T07:26:15;9.97;;;4.33;;
11054;SDS011;5580;50.106;8.702;2023-05-10T07:28:40;8.50;;;4.40;;
11054;SDS011;5580;50.106;8.702;2023-05-10T07:31:06;7.63;;;4.50;;
11054;SDS011;5580;50.106;8.702;2023-05-10T07:33:32;8.80;;;4.80;;
11054;SDS011;5580;50.106;8.702;2023-05-10T07:35:58;7.23;;;4.17;;
11054;SDS011;5580;50.106;8.702;2023-05-10T07:38:23;8.40;;;4.40;;
11054;SDS011;5580;50.106;8.702;2023-05-10T07:40:49;7.70;;;4.30;;
11054;SDS011;5580;50.106;8.702;2023-05-10T07:43:14;9.07;;;4.30;;
11054;SDS011;5580;50.106;8.702;2023-05-10T07:45:40;8.27;;;4.50;;
11054;SDS011;5580;50.106;8.702;2023-05-10T07:48:05;7.57;;;4.27;;
11054;SDS011;5580;50.106;8.702;2023-05-10T07:50:31;8.37;;;4.40;;
11054;SDS011;5580;50.106;8.702;2023-05-10T07:52:57;6.97;;;3.97;;
11054;SDS011;5580;50.106;8.702;2023-05-10T07:55:22;6.83;;;4.10;;
11054;SDS011;5580;50.106;8.702;2023-05-10T07:57:48;6.57;;;4.10;;
11054;SDS011;5580;50.106;8.702;2023-05-10T08:00:16;7.77;;;4.20;;
11054;SDS011;5580;50.106;8.702;2023-05-10T08:02:43;7.50;;;4.40;;
11054;SDS011;5580;50.106;8.702;2023-05-10T08:05:08;11.20;;;4.60;;
11054;SDS011;5580;50.106;8.702;2023-05-10T08:07:34;8.77;;;4.33;;
11054;SDS011;5580;50.106;8.702;2023-05-10T08:10:00;8.67;;;4.40;;
11054;SDS011;5580;50.106;8.702;2023-05-10T08:12:26;8.37;;;4.50;;
11054;SDS011;5580;50.106;8.702;2023-05-10T08:14:52;6.53;;;4.23;;
11054;SDS011;5580;50.106;8.702;2023-05-10T08:17:17;7.97;;;4.40;;
11054;SDS011;5580;50.106;8.702;2023-05-10T08:19:43;8.27;;;4.60;;
11054;SDS011;5580;50.106;8.702;2023-05-10T08:22:09;8.80;;;4.53;;
11054;SDS011;5580;50.106;8.702;2023-05-10T08:24:35;9.07;;;4.40;;
11054;SDS011;5580;50.106;8.702;2023-05-10T08:27:03;9.93;;;4.70;;
11054;SDS011;5580;50.106;8.702;2023-05-10T08:29:32;7.57;;;4.37;;
11054;SDS011;5580;50.106;8.702;2023-05-10T08:31:57;8.63;;;4.47;;
11054;SDS011;5580;50.106;8.702;2023-05-10T08:34:23;11.57;;;4.87;;
11054;SDS011;5580;50.106;8.702;2023-05-10T08:36:48;9.53;;;4.57;;
11054;SDS011;5580;50.106;8.702;2023-05-10T08:39:14;11.67;;;4.67;;
11054;SDS011;5580;50.106;8.702;2023-05-10T08:41:40;7.70;;;4.40;;
11054;SDS011;5580;50.106;8.702;2023-05-10T08:44:09;10.03;;;4.60;;
11054;SDS011;5580;50.106;8.702;2023-05-10T08:46:35;7.17;;;4.43;;
11054;SDS011;5580;50.106;8.702;2023-05-10T08:49:04;7.30;;;4.33;;
11054;SDS011;5580;50.106;8.702;2023-05-10T08:51:34;6.03;;;4.07;;
11054;SDS011;5580;50.106;8.702;2023-05-10T08:54:02;9.67;;;4.40;;
11054;SDS011;5580;50.106;8.702;2023-05-10T08:56:29;6.13;;;4.10;;
11054;SDS011;5580;50.106;8.702;2023-05-10T08:58:55;10.63;;;4.50;;
11054;SDS011;5580;50.106;8.702;2023-05-10T09:01:21;7.87;;;4.30;;
11054;SDS011;5580;50.106;8.702;2023-05-10T09:03:48;8.83;;;4.53;;
11054;SDS011;5580;50.106;8.702;2023-05-10T09:06:15;7.93;;;4.30;;
11054;SDS011;5580;50.106;8.702;2023-05-10T09:08:41;7.13;;;4.27;;
11054;SDS011;5580;50.106;8.702;2023-05-10T09:11:07;11.80;;;4.10;;
11054;SDS011;5580;50.106;8.702;2023-05-10T09:13:34;6.70;;;4.07;;
11054;SDS011;5580;50.106;8.702;2023-05-10T09:16:01;11.93;;;4.33;;
11054;SDS011;5580;50.106;8.702;2023-05-10T09:18:28;6.37;;;4.40;;
11054;SDS011;5580;50.106;8.702;2023-05-10T09:20:54;7.93;;;4.20;;
11054;SDS011;5580;50.106;8.702;2023-05-10T09:23:19;7.93;;;4.23;;
11054;SDS011;5580;50.106;8.702;2023-05-10T09:25:45;5.83;;;3.87;;
11054;SDS011;5580;50.106;8.702;2023-05-10T09:28:11;8.93;;;4.07;;
11054;SDS011;5580;50.106;8.702;2023-05-10T09:30:37;8.53;;;4.13;;
11054;SDS011;5580;50.106;8.702;2023-05-10T09:33:02;6.80;;;3.97;;
11054;SDS011;5580;50.106;8.702;2023-05-10T09:35:29;11.43;;;4.10;;
11054;SDS011;5580;50.106;8.702;2023-05-10T09:38:00;6.90;;;4.10;;
11054;SDS011;5580;50.106;8.702;2023-05-10T09:40:28;7.63;;;4.37;;
11054;SDS011;5580;50.106;8.702;2023-05-10T09:43:05;7.97;;;4.00;;
11054;SDS011;5580;50.106;8.702;2023-05-10T09:45:33;6.67;;;3.93;;
11054;SDS011;5580;50.106;8.702;2023-05-10T09:48:00;8.20;;;4.00;;
11054;SDS011;5580;50.106;8.702;2023-05-10T09:50:27;7.60;;;3.80;;
11054;SDS011;5580;50.106;8.702;2023-05-10T09:55:39;7.93;;;3.80;;
11054;SDS011;5580;50.106;8.702;2023-05-10T09:58:06;7.70;;;4.20;;
11054;SDS011;5580;50.106;8.702;2023-05-10T10:00:44;5.70;;;3.87;;
11054;SDS011;5580;50.106;8.702;2023-05-10T10:03:13;5.03;;;3.70;;
11054;SDS011;5580;50.106;8.702;2023-05-10T10:05:43;6.93;;;3.80;;
11054;SDS011;5580;50.106;8.702;2023-05-10T10:08:09;7.80;;;4.30;;
11054;SDS011;5580;50.106;8.702;2023-05-10T10:10:36;5.90;;;4.10;;
11054;SDS011;5580;50.106;8.702;2023-05-10T10:13:02;7.83;;;4.27;;
11054;SDS011;5580;50.106;8.702;2023-05-10T10:15:27;8.40;;;3.80;;
11054;SDS011;5580;50.106;8.702;2023-05-10T10:17:53;7.27;;;3.90;;
11054;SDS011;5580;50.106;8.702;2023-05-10T10:20:19;5.37;;;3.80;;
11054;SDS011;5580;50.106;8.702;2023-05-10T10:22:46;9.63;;;4.30;;
11054;SDS011;5580;50.106;8.702;2023-05-10T10:25:14;9.63;;;4.13;;
11054;SDS011;5580;50.106;8.702;2023-05-10T10:35:43;7.37;;;4.50;;
11054;SDS011;5580;50.106;8.702;2023-05-10T10:38:11;9.97;;;4.60;;
11054;SDS011;5580;50.106;8.702;2023-05-10T10:40:37;9.30;;;4.73;;
11054;SDS011;5580;50.106;8.702;2023-05-10T10:46:29;7.57;;;4.50;;
11054;SDS011;5580;50.106;8.702;2023-05-10T10:48:40;10.47;;;4.40;;
11054;SDS011;5580;50.106;8.702;2023-05-10T10:51:06;4.30;;;3.23;;
11054;SDS011;5580;50.106;8.702;2023-05-10T10:53:32;6.07;;;3.10;;
11054;SDS011;5580;50.106;8.702;2023-05-10T10:56:08;6.77;;;3.33;;
11054;SDS011;5580;50.106;8.702;2023-05-10T10:58:37;4.93;;;3.17;;
11054;SDS011;5580;50.106;8.702;2023-05-10T11:01:24;4.67;;;3.03;;
11054;SDS011;5580;50.106;8.702;2023-05-10T11:06:29;4.80;;;2.73;;
11054;SDS011;5580;50.106;8.702;2023-05-10T11:08:56;5.90;;;3.23;;
11054;SDS011;5580;50.106;8.702;2023-05-10T11:11:22;5.60;;;2.63;;
11054;SDS011;5580;50.106;8.702;2023-05-10T11:13:48;2.90;;;2.67;;
11054;SDS011;5580;50.106;8.702;2023-05-10T11:16:20;4.00;;;2.97;;
11054;SDS011;5580;50.106;8.702;2023-05-10T11:19:04;5.30;;;3.20;;
11054;SDS011;5580;50.106;8.702;2023-05-10T11:21:33;5.03;;;3.20;;
11054;SDS011;5580;50.106;8.702;2023-05-10T11:24:12;3.20;;;2.90;;
11054;SDS011;5580;50.106;8.702;2023-05-10T11:26:39;2.87;;;2.60;;
11054;SDS011;5580;50.106;8.702;2023-05-10T11:29:06;5.37;;;3.23;;
11054;SDS011;5580;50.106;8.702;2023-05-10T11:31:31;5.57;;;3.27;;
11054;SDS011;5580;50.106;8.702;2023-05-10T11:33:58;3.63;;;2.97;;
11054;SDS011;5580;50.106;8.702;2023-05-10T11:36:27;5.07;;;3.20;;
11054;SDS011;5580;50.106;8.702;2023-05-10T11:38:55;4.13;;;3.23;;
11054;SDS011;5580;50.106;8.702;2023-05-10T11:41:21;5.27;;;3.20;;
11054;SDS011;5580;50.106;8.702;2023-05-10T11:43:51;4.83;;;3.17;;
11054;SDS011;5580;50.106;8.702;2023-05-10T11:46:19;4.37;;;3.03;;
11054;SDS011;5580;50.106;8.702;2023-05-10T11:48:46;4.57;;;2.83;;
11054;SDS011;5580;50.106;8.702;2023-05-10T11:51:15;3.97;;;3.07;;
11054;SDS011;5580;50.106;8.702;2023-05-10T11:53:44;5.37;;;3.10;;
11054;SDS011;5580;50.106;8.702;2023-05-10T11:56:10;5.27;;;2.87;;
11054;SDS011;5580;50.106;8.702;2023-05-10T11:58:36;4.20;;;3.40;;
11054;SDS011;5580;50.106;8.702;2023-05-10T12:01:04;4.30;;;3.30;;
11054;SDS011;5580;50.106;8.702;2023-05-10T12:03:32;3.83;;;3.03;;
11054;SDS011;5580;50.106;8.702;2023-05-10T12:05:58;7.73;;;3.60;;
11054;SDS011;5580;50.106;8.702;2023-05-10T12:08:25;4.90;;;3.17;;
11054;SDS011;5580;50.106;8.702;2023-05-10T12:11:13;5.13;;;3.00;;
11054;SDS011;5580;50.106;8.702;2023-05-10T12:13:40;4.90;;;3.30;;
11054;SDS011;5580;50.106;8.702;2023-05-10T12:16:21;3.50;;;3.20;;
11054;SDS011;5580;50.106;8.702;2023-05-10T12:18:49;6.83;;;3.50;;
11054;SDS011;5580;50.106;8.702;2023-05-10T12:21:22;6.10;;;3.50;;
11054;SDS011;5580;50.106;8.702;2023-05-10T12:23:49;5.67;;;3.43;;
11054;SDS011;5580;50.106;8.702;2023-05-10T12:26:15;4.80;;;3.53;;
11054;SDS011;5580;50.106;8.702;2023-05-10T12:28:41;3.87;;;3.50;;
11054;SDS011;5580;50.106;8.702;2023-05-10T12:31:07;4.03;;;3.63;;
11054;SDS011;5580;50.106;8.702;2023-05-10T12:33:42;4.73;;;3.77;;
11054;SDS011;5580;50.106;8.702;2023-05-10T12:36:10;4.57;;;3.83;;
11054;SDS011;5580;50.106;8.702;2023-05-10T12:38:43;6.30;;;3.33;;
11054;SDS011;5580;50.106;8.702;2023-05-10T12:41:14;5.23;;;3.20;;
11054;SDS011;5580;50.106;8.702;2023-05-10T12:43:41;3.00;;;2.47;;
11054;SDS011;5580;50.106;8.702;2023-05-10T12:46:07;3.90;;;2.10;;
11054;SDS011;5580;50.106;8.702;2023-05-10T12:48:34;2.40;;;2.20;;
11054;SDS011;5580;50.106;8.702;2023-05-10T12:51:01;4.57;;;2.60;;
11054;SDS011;5580;50.106;8.702;2023-05-10T12:53:27;3.10;;;2.20;;
11054;SDS011;5580;50.106;8.702;2023-05-10T12:55:52;2.57;;;2.37;;
11054;SDS011;5580;50.106;8.702;2023-05-10T12:58:18;4.30;;;2.53;;
11054;SDS011;5580;50.106;8.702;2023-05-10T13:00:44;3.50;;;1.83;;
11054;SDS011;5580;50.106;8.702;2023-05-10T13:03:10;2.40;;;2.20;;
11054;SDS011;5580;50.106;8.702;2023-05-10T13:05:36;4.47;;;2.23;;
11054;SDS011;5580;50.106;8.702;2023-05-10T13:08:01;3.07;;;2.00;;
11054;SDS011;5580;50.106;8.702;2023-05-10T13:10:29;2.53;;;2.30;;
11054;SDS011;5580;50.106;8.702;2023-05-10T13:12:55;2.00;;;1.90;;
11054;SDS011;5580;50.106;8.702;2023-05-10T13:15:21;3.17;;;2.10;;
11054;SDS011;5580;50.106;8.702;2023-05-10T13:17:47;2.37;;;1.90;;
11054;SDS011;5580;50.106;8.702;2023-05-10T13:20:12;2.60;;;1.80;;
11054;SDS011;5580;50.106;8.702;2023-05-10T13:22:38;3.20;;;1.97;;
11054;SDS011;5580;50.106;8.702;2023-05-10T13:25:03;4.77;;;2.40;;
11054;SDS011;5580;50.106;8.702;2023-05-10T13:27:29;3.57;;;2.43;;
11054;SDS011;5580;50.106;8.702;2023-05-10T13:29:55;3.50;;;2.57;;
11054;SDS011;5580;50.106;8.702;2023-05-10T13:32:20;2.63;;;2.20;;
11054;SDS011;5580;50.106;8.702;2023-05-10T13:34:47;1.97;;;1.87;;
11054;SDS011;5580;50.106;8.702;2023-05-10T13:37:13;5.30;;;2.80;;
11054;SDS011;5580;50.106;8.702;2023-05-10T13:39:38;2.17;;;2.03;;
11054;SDS011;5580;50.106;8.702;2023-05-10T13:42:04;2.57;;;2.13;;
11054;SDS011;5580;50.106;8.702;2023-05-10T13:44:30;5.77;;;2.37;;
11054;SDS011;5580;50.106;8.702;2023-05-10T13:46:56;4.00;;;2.23;;
11054;SDS011;5580;50.106;8.702;2023-05-10T13:49:21;6.27;;;2.00;;
11054;SDS011;5580;50.106;8.702;2023-05-10T13:51:47;2.90;;;2.00;;
11054;SDS011;5580;50.106;8.702;2023-05-10T13:54:13;3.37;;;1.83;;
11054;SDS011;5580;50.106;8.702;2023-05-10T13:56:39;2.77;;;1.83;;
11054;SDS011;5580;50.106;8.702;2023-05-10T13:59:06;2.10;;;1.90;;
11054;SDS011;5580;50.106;8.702;2023-05-10T14:01:32;2.13;;;1.93;;
11054;SDS011;5580;50.106;8.702;2023-05-10T14:03:58;6.13;;;1.90;;
11054;SDS011;5580;50.106;8.702;2023-05-10T14:06:24;2.83;;;2.03;;
11054;SDS011;5580;50.106;8.702;2023-05-10T14:08:50;4.87;;;1.83;;
11054;SDS011;5580;50.106;8.702;2023-05-10T14:11:15;4.43;;;1.70;;
11054;SDS011;5580;50.106;8.702;2023-05-10T14:13:41;4.40;;;2.40;;
11054;SDS011;5580;50.106;8.702;2023-05-10T14:16:07;2.50;;;2.03;;
11054;SDS011;5580;50.106;8.702;2023-05-10T14:18:32;3.70;;;2.20;;
11054;SDS011;5580;50.106;8.702;2023-05-10T14:20:58;2.60;;;2.40;;
11054;SDS011;5580;50.106;8.702;2023-05-10T14:23:23;6.63;;;2.53;;
11054;SDS011;5580;50.106;8.702;2023-05-10T14:25:52;4.40;;;2.07;;
11054;SDS011;5580;50.106;8.702;2023-05-10T14:28:18;2.83;;;2.00;;
11054;SDS011;5580;50.106;8.702;2023-05-10T14:30:45;3.10;;;2.30;;
11054;SDS011;5580;50.106;8.702;2023-05-10T14:33:11;3.47;;;2.13;;
11054;SDS011;5580;50.106;8.702;2023-05-10T14:35:37;3.80;;;1.80;;
11054;SDS011;5580;50.106;8.702;2023-05-10T14:38:02;3.30;;;2.07;;
11054;SDS011;5580;50.106;8.702;2023-05-10T14:40:30;5.93;;;2.10;;
11054;SDS011;5580;50.106;8.702;2023-05-10T14:42:56;5.37;;;2.17;;
11054;SDS011;5580;50.106;8.702;2023-05-10T14:45:22;2.70;;;2.10;;
11054;SDS011;5580;50.106;8.702;2023-05-10T14:47:48;3.60;;;2.53;;
11054;SDS011;5580;50.106;8.702;2023-05-10T14:50:15;3.27;;;2.40;;
11054;SDS011;5580;50.106;8.702;2023-05-10T14:52:41;5.47;;;2.07;;
11054;SDS011;5580;50.106;8.702;2023-05-10T14:55:07;2.97;;;2.10;;
11054;SDS011;5580;50.106;8.702;2023-05-10T14:57:33;5.80;;;2.30;;
11054;SDS011;5580;50.106;8.702;2023-05-10T14:59:59;3.83;;;2.17;;
11054;SDS011;5580;50.106;8.702;2023-05-10T15:02:25;4.27;;;2.30;;
11054;SDS011;5580;50.106;8.702;2023-05-10T15:04:50;2.10;;;1.90;;
11054;SDS011;5580;50.106;8.702;2023-05-10T15:07:16;4.27;;;2.33;;
11054;SDS011;5580;50.106;8.702;2023-05-10T15:09:43;4.83;;;2.33;;
11054;SDS011;5580;50.106;8.702;2023-05-10T15:12:12;2.93;;;2.37;;
11054;SDS011;5580;50.106;8.702;2023-05-10T15:14:37;5.37;;;2.20;;
11054;SDS011;5580;50.106;8.702;2023-05-10T15:17:03;4.40;;;2.17;;
11054;SDS011;5580;50.106;8.702;2023-05-10T15:19:31;5.40;;;2.20;;
11054;SDS011;5580;50.106;8.702;2023-05-10T15:21:58;4.27;;;2.73;;
11054;SDS011;5580;50.106;8.702;2023-05-10T15:24:24;3.70;;;2.43;;
11054;SDS011;5580;50.106;8.702;2023-05-10T15:26:49;3.20;;;2.33;;
11054;SDS011;5580;50.106;8.702;2023-05-10T15:29:15;2.07;;;1.90;;
11054;SDS011;5580;50.106;8.702;2023-05-10T15:31:45;2.93;;;2.17;;